Time,TemperatureF,DewpointF,PressureIn,WindDirection,WindDirectionDegrees,WindSpeedMPH,WindSpeedGustMPH,Humidity,HourlyPrecipIn,Conditions,Clouds,dailyrainin,SoftwareType,DateUTC
2013-09-08 00:02:00,62.3,42.0,29.13,WSW,247,0.0,1.0,49,0.00,,,0.00,Rainwise IP-100,2013-09-08 07:02:00,
2013-09-08 00:07:00,62.0,42.0,29.13,WSW,247,0.0,0.0,49,0.00,,,0.00,Rainwise IP-100,2013-09-08 07:07:00,
2013-09-08 00:12:00,61.9,43.0,29.13,WSW,247,0.0,1.0,50,0.00,,,0.00,Rainwise IP-100,2013-09-08 07:12:00,
2013-09-08 00:17:00,61.9,43.0,29.13,WSW,247,0.0,0.0,50,0.00,,,0.00,Rainwise IP-100,2013-09-08 07:17:00,
2013-09-08 00:22:00,61.7,43.0,29.13,WSW,247,0.0,0.0,51,0.00,,,0.00,Rainwise IP-100,2013-09-08 07:22:00,
2013-09-08 00:27:00,61.4,44.0,29.13,WSW,247,0.0,0.0,52,0.00,,,0.00,Rainwise IP-100,2013-09-08 07:27:00,
2013-09-08 00:32:00,60.9,44.0,29.13,WSW,247,1.6,2.0,53,0.00,,,0.00,Rainwise IP-100,2013-09-08 07:32:00,
2013-09-08 00:37:00,60.6,43.0,29.13,WSW,247,0.0,2.0,53,0.00,,,0.00,Rainwise IP-100,2013-09-08 07:37:00,
2013-09-08 00:42:00,60.7,43.0,29.13,WSW,247,0.0,0.0,52,0.00,,,0.00,Rainwise IP-100,2013-09-08 07:42:00,
2013-09-08 00:47:00,60.6,42.0,29.13,WSW,247,0.0,0.0,51,0.00,,,0.00,Rainwise IP-100,2013-09-08 07:47:00,
2013-09-08 00:52:00,60.1,42.0,29.13,WSW,247,0.0,0.0,52,0.00,,,0.00,Rainwise IP-100,2013-09-08 07:52:00,
2013-09-08 00:57:00,59.5,42.0,29.13,WSW,247,0.0,0.0,53,0.00,,,0.00,Rainwise IP-100,2013-09-08 07:57:00,
2013-09-08 01:02:00,59.2,43.0,29.13,WSW,247,0.0,1.0,55,0.00,,,0.00,Rainwise IP-100,2013-09-08 08:02:00,
2013-09-08 01:07:00,59.1,43.0,29.13,WSW,247,1.9,2.0,56,0.00,,,0.00,Rainwise IP-100,2013-09-08 08:07:00,
2013-09-08 01:12:00,58.8,43.0,29.14,WSW,247,0.0,2.0,56,0.00,,,0.00,Rainwise IP-100,2013-09-08 08:12:00,
2013-09-08 01:17:00,58.8,44.0,29.13,WSW,247,0.0,1.0,57,0.00,,,0.00,Rainwise IP-100,2013-09-08 08:17:00,
2013-09-08 01:22:00,59.0,44.0,29.13,WSW,247,0.0,0.0,58,0.00,,,0.00,Rainwise IP-100,2013-09-08 08:22:00,
2013-09-08 01:27:00,59.0,44.0,29.13,WSW,247,0.0,0.0,57,0.00,,,0.00,Rainwise IP-100,2013-09-08 08:27:00,
2013-09-08 01:32:00,58.7,43.0,29.13,WSW,247,0.0,1.0,56,0.00,,,0.00,Rainwise IP-100,2013-09-08 08:32:00,
2013-09-08 01:37:00,58.3,42.0,29.13,WSW,247,1.2,1.2,56,0.00,,,0.00,Rainwise IP-100,2013-09-08 08:37:00,
2013-09-08 01:42:00,58.0,43.0,29.13,WSW,247,0.0,1.0,57,0.00,,,0.00,Rainwise IP-100,2013-09-08 08:42:00,
2013-09-08 01:47:00,58.1,43.0,29.13,WSW,247,0.0,0.0,58,0.00,,,0.00,Rainwise IP-100,2013-09-08 08:47:00,
2013-09-08 01:52:00,58.2,43.0,29.13,WSW,247,1.4,1.4,57,0.00,,,0.00,Rainwise IP-100,2013-09-08 08:52:00,
2013-09-08 01:57:00,57.9,43.0,29.13,WSW,247,0.0,1.0,57,0.00,,,0.00,Rainwise IP-100,2013-09-08 08:57:00,
2013-09-08 02:02:00,57.5,43.0,29.13,WSW,247,0.0,1.0,58,0.00,,,0.00,Rainwise IP-100,2013-09-08 09:02:00,
2013-09-08 02:07:00,57.4,43.0,29.13,WSW,247,1.4,2.0,59,0.00,,,0.00,Rainwise IP-100,2013-09-08 09:07:00,
2013-09-08 02:12:00,57.4,43.0,29.13,WSW,247,0.0,1.0,59,0.00,,,0.00,Rainwise IP-100,2013-09-08 09:12:00,
2013-09-08 02:17:00,57.6,43.0,29.13,WSW,247,0.0,1.0,58,0.00,,,0.00,Rainwise IP-100,2013-09-08 09:17:00,
2013-09-08 02:22:00,57.4,42.0,29.13,WSW,247,0.0,1.0,57,0.00,,,0.00,Rainwise IP-100,2013-09-08 09:22:00,
2013-09-08 02:27:00,57.3,42.0,29.13,WSW,247,0.0,0.0,58,0.00,,,0.00,Rainwise IP-100,2013-09-08 09:27:00,
2013-09-08 02:32:00,57.2,43.0,29.13,WSW,247,0.0,0.0,59,0.00,,,0.00,Rainwise IP-100,2013-09-08 09:32:00,
2013-09-08 02:37:00,56.7,42.0,29.13,WSW,247,0.0,0.0,59,0.00,,,0.00,Rainwise IP-100,2013-09-08 09:37:00,
2013-09-08 02:42:00,56.3,42.0,29.13,WSW,247,0.0,0.0,60,0.00,,,0.00,Rainwise IP-100,2013-09-08 09:42:00,
2013-09-08 02:47:00,56.3,42.0,29.13,WSW,247,0.0,0.0,61,0.00,,,0.00,Rainwise IP-100,2013-09-08 09:47:00,
2013-09-08 02:52:00,56.3,42.0,29.13,WSW,247,0.0,0.0,61,0.00,,,0.00,Rainwise IP-100,2013-09-08 09:52:00,
2013-09-08 02:57:00,56.2,42.0,29.13,WSW,247,1.6,1.6,61,0.00,,,0.00,Rainwise IP-100,2013-09-08 09:57:00,
2013-09-08 03:02:00,55.8,42.0,29.13,WSW,247,1.2,2.0,60,0.00,,,0.00,Rainwise IP-100,2013-09-08 10:02:00,
2013-09-08 03:07:00,55.6,42.0,29.13,WSW,247,0.0,1.0,60,0.00,,,0.00,Rainwise IP-100,2013-09-08 10:07:00,
2013-09-08 03:12:00,55.7,42.0,29.13,WSW,247,1.2,2.0,61,0.00,,,0.00,Rainwise IP-100,2013-09-08 10:12:00,
2013-09-08 03:17:00,55.7,43.0,29.13,ESE,112,0.0,1.0,63,0.00,,,0.00,Rainwise IP-100,2013-09-08 10:17:00,
2013-09-08 03:22:00,55.4,43.0,29.13,ESE,112,0.0,0.0,63,0.00,,,0.00,Rainwise IP-100,2013-09-08 10:22:00,
2013-09-08 03:27:00,54.9,42.0,29.13,ESE,112,0.0,0.0,62,0.00,,,0.00,Rainwise IP-100,2013-09-08 10:27:00,
2013-09-08 03:32:00,54.6,42.0,29.14,ESE,112,0.0,0.0,62,0.00,,,0.00,Rainwise IP-100,2013-09-08 10:32:00,
2013-09-08 03:37:00,54.2,41.0,29.14,WSW,247,2.1,3.0,63,0.00,,,0.00,Rainwise IP-100,2013-09-08 10:37:00,
2013-09-08 03:42:00,53.9,42.0,29.13,WSW,247,1.2,2.0,65,0.00,,,0.00,Rainwise IP-100,2013-09-08 10:42:00,
2013-09-08 03:47:00,54.1,43.0,29.13,WSW,247,0.0,1.0,66,0.00,,,0.00,Rainwise IP-100,2013-09-08 10:47:00,
2013-09-08 03:52:00,54.5,44.0,29.14,WSW,247,0.0,1.0,67,0.00,,,0.00,Rainwise IP-100,2013-09-08 10:52:00,
2013-09-08 03:57:00,54.5,43.0,29.13,WSW,247,0.0,0.0,66,0.00,,,0.00,Rainwise IP-100,2013-09-08 10:57:00,
2013-09-08 04:02:00,54.4,43.0,29.14,WSW,247,0.0,0.0,64,0.00,,,0.00,Rainwise IP-100,2013-09-08 11:02:00,
2013-09-08 04:07:00,53.9,42.0,29.13,WSW,247,1.9,4.0,64,0.00,,,0.00,Rainwise IP-100,2013-09-08 11:07:00,
2013-09-08 04:12:00,53.6,42.0,29.13,WSW,247,0.0,2.0,65,0.00,,,0.00,Rainwise IP-100,2013-09-08 11:12:00,
2013-09-08 04:17:00,53.7,42.0,29.13,WSW,247,0.0,1.0,66,0.00,,,0.00,Rainwise IP-100,2013-09-08 11:17:00,
2013-09-08 04:22:00,54.1,43.0,29.13,WSW,247,0.0,0.0,66,0.00,,,0.00,Rainwise IP-100,2013-09-08 11:22:00,
2013-09-08 04:27:00,54.1,42.0,29.14,WSW,247,0.0,0.0,65,0.00,,,0.00,Rainwise IP-100,2013-09-08 11:27:00,
2013-09-08 04:32:00,53.6,42.0,29.13,WSW,247,0.0,0.0,65,0.00,,,0.00,Rainwise IP-100,2013-09-08 11:32:00,
2013-09-08 04:37:00,53.1,41.0,29.13,WSW,247,0.0,0.0,66,0.00,,,0.00,Rainwise IP-100,2013-09-08 11:37:00,
2013-09-08 04:42:00,52.8,42.0,29.13,WSW,247,0.0,0.0,67,0.00,,,0.00,Rainwise IP-100,2013-09-08 11:42:00,
2013-09-08 04:47:00,52.7,42.0,29.13,WSW,247,0.0,0.0,67,0.00,,,0.00,Rainwise IP-100,2013-09-08 11:47:00,
2013-09-08 04:52:00,52.6,42.0,29.13,WSW,247,0.0,1.0,68,0.00,,,0.00,Rainwise IP-100,2013-09-08 11:52:00,
2013-09-08 04:57:00,52.4,42.0,29.13,WSW,247,0.0,2.0,69,0.00,,,0.00,Rainwise IP-100,2013-09-08 11:57:00,
2013-09-08 05:02:00,52.6,43.0,29.13,WSW,247,0.0,1.0,70,0.00,,,0.00,Rainwise IP-100,2013-09-08 12:02:00,
2013-09-08 05:07:00,52.7,43.0,29.13,WSW,247,0.0,1.0,70,0.00,,,0.00,Rainwise IP-100,2013-09-08 12:07:00,
2013-09-08 05:12:00,52.4,42.0,29.13,WSW,247,0.0,1.0,70,0.00,,,0.00,Rainwise IP-100,2013-09-08 12:12:00,
2013-09-08 05:17:00,52.0,42.0,29.13,WSW,247,0.0,0.0,70,0.00,,,0.00,Rainwise IP-100,2013-09-08 12:17:00,
2013-09-08 05:22:00,51.8,43.0,29.14,WSW,247,0.0,0.0,71,0.00,,,0.00,Rainwise IP-100,2013-09-08 12:22:00,
2013-09-08 05:27:00,51.7,43.0,29.13,WSW,247,0.0,0.0,71,0.00,,,0.00,Rainwise IP-100,2013-09-08 12:27:00,
2013-09-08 05:32:00,51.6,43.0,29.13,WSW,247,0.0,0.0,71,0.00,,,0.00,Rainwise IP-100,2013-09-08 12:32:00,
2013-09-08 05:37:00,51.5,43.0,29.14,WSW,247,0.0,0.0,71,0.00,,,0.00,Rainwise IP-100,2013-09-08 12:37:00,
2013-09-08 05:42:00,51.2,42.0,29.13,WSW,247,0.0,0.0,71,0.00,,,0.00,Rainwise IP-100,2013-09-08 12:42:00,
2013-09-08 05:47:00,51.0,42.0,29.13,WSW,247,0.0,0.0,71,0.00,,,0.00,Rainwise IP-100,2013-09-08 12:47:00,
2013-09-08 05:52:00,50.8,41.0,29.14,WSW,247,2.1,2.1,71,0.00,,,0.00,Rainwise IP-100,2013-09-08 12:52:00,
2013-09-08 05:57:00,50.8,41.0,29.14,WSW,247,0.0,2.0,71,0.00,,,0.00,Rainwise IP-100,2013-09-08 12:57:00,
2013-09-08 06:02:00,50.9,42.0,29.14,WSW,247,0.0,0.0,71,0.00,,,0.00,Rainwise IP-100,2013-09-08 13:02:00,
2013-09-08 06:07:00,51.2,42.0,29.14,WSW,247,0.0,1.0,72,0.00,,,0.00,Rainwise IP-100,2013-09-08 13:07:00,
2013-09-08 06:12:00,51.4,42.0,29.14,WSW,247,0.0,0.0,72,0.00,,,0.00,Rainwise IP-100,2013-09-08 13:12:00,
2013-09-08 06:17:00,51.5,43.0,29.14,WSW,247,0.0,1.0,72,0.00,,,0.00,Rainwise IP-100,2013-09-08 13:17:00,
2013-09-08 06:22:00,51.4,43.0,29.14,WSW,247,2.1,0.0,73,0.00,,,0.00,Rainwise IP-100,2013-09-08 13:22:00,
2013-09-08 06:27:00,51.0,42.0,29.14,WSW,247,1.4,2.0,72,0.00,,,0.00,Rainwise IP-100,2013-09-08 13:27:00,
2013-09-08 06:32:00,50.8,42.0,29.14,WSW,247,0.0,2.0,72,0.00,,,0.00,Rainwise IP-100,2013-09-08 13:32:00,
2013-09-08 06:37:00,50.9,42.0,29.14,WSW,247,1.2,1.2,71,0.00,,,0.00,Rainwise IP-100,2013-09-08 13:37:00,
2013-09-08 06:42:00,51.0,42.0,29.15,WSW,247,0.0,1.0,72,0.00,,,0.00,Rainwise IP-100,2013-09-08 13:42:00,
2013-09-08 06:47:00,51.1,43.0,29.14,South,180,0.0,0.0,73,0.00,,,0.00,Rainwise IP-100,2013-09-08 13:47:00,
2013-09-08 06:52:00,50.9,42.0,29.15,South,180,0.0,0.0,72,0.00,,,0.00,Rainwise IP-100,2013-09-08 13:52:00,
2013-09-08 06:57:00,50.5,42.0,29.15,South,180,0.0,0.0,72,0.00,,,0.00,Rainwise IP-100,2013-09-08 13:57:00,
2013-09-08 07:02:00,50.2,41.0,29.15,South,180,0.0,0.0,73,0.00,,,0.00,Rainwise IP-100,2013-09-08 14:02:00,
2013-09-08 07:07:00,50.2,42.0,29.15,South,180,0.0,0.0,74,0.00,,,0.00,Rainwise IP-100,2013-09-08 14:07:00,
2013-09-08 07:12:00,50.4,42.0,29.15,South,180,0.0,0.0,73,0.00,,,0.00,Rainwise IP-100,2013-09-08 14:12:00,
2013-09-08 07:17:00,50.8,42.0,29.15,South,180,0.0,0.0,73,0.00,,,0.00,Rainwise IP-100,2013-09-08 14:17:00,
2013-09-08 07:22:00,51.6,43.0,29.15,South,180,0.0,0.0,72,0.00,,,0.00,Rainwise IP-100,2013-09-08 14:22:00,
2013-09-08 07:27:00,52.5,43.0,29.16,South,180,0.0,0.0,71,0.00,,,0.00,Rainwise IP-100,2013-09-08 14:27:00,
2013-09-08 07:32:00,53.1,43.0,29.15,South,180,0.0,0.0,70,0.00,,,0.00,Rainwise IP-100,2013-09-08 14:32:00,
2013-09-08 07:37:00,54.1,44.0,29.16,South,180,0.0,0.0,69,0.00,,,0.00,Rainwise IP-100,2013-09-08 14:37:00,
2013-09-08 07:42:00,55.2,44.0,29.16,South,180,0.0,0.0,67,0.00,,,0.00,Rainwise IP-100,2013-09-08 14:42:00,
2013-09-08 07:47:00,56.3,44.0,29.16,South,180,0.0,0.0,65,0.00,,,0.00,Rainwise IP-100,2013-09-08 14:47:00,
2013-09-08 07:52:00,57.2,44.0,29.16,South,180,0.0,0.0,62,0.00,,,0.00,Rainwise IP-100,2013-09-08 14:52:00,
2013-09-08 07:57:00,58.0,44.0,29.16,South,180,0.0,0.0,60,0.00,,,0.00,Rainwise IP-100,2013-09-08 14:57:00,
2013-09-08 08:02:00,59.2,45.0,29.16,South,180,0.0,0.0,59,0.00,,,0.00,Rainwise IP-100,2013-09-08 15:02:00,
2013-09-08 08:07:00,60.3,45.0,29.16,ESE,112,0.0,2.0,57,0.00,,,0.00,Rainwise IP-100,2013-09-08 15:07:00,
2013-09-08 08:12:00,60.9,45.0,29.16,ESE,112,1.2,2.0,55,0.00,,,0.00,Rainwise IP-100,2013-09-08 15:12:00,
2013-09-08 08:17:00,61.6,44.0,29.16,ESE,112,1.9,2.0,53,0.00,,,0.00,Rainwise IP-100,2013-09-08 15:17:00,
2013-09-08 08:22:00,62.4,45.0,29.15,ESE,112,0.0,2.0,52,0.00,,,0.00,Rainwise IP-100,2013-09-08 15:22:00,
2013-09-08 08:27:00,63.8,45.0,29.15,ESE,112,0.0,0.0,51,0.00,,,0.00,Rainwise IP-100,2013-09-08 15:27:00,
2013-09-08 08:32:00,65.5,47.0,29.15,ESE,112,2.6,2.6,50,0.00,,,0.00,Rainwise IP-100,2013-09-08 15:32:00,
2013-09-08 08:37:00,66.3,46.0,29.15,SSE,157,2.1,3.0,47,0.00,,,0.00,Rainwise IP-100,2013-09-08 15:37:00,
2013-09-08 08:42:00,66.7,45.0,29.15,SSE,157,0.0,3.0,46,0.00,,,0.00,Rainwise IP-100,2013-09-08 15:42:00,
2013-09-08 08:47:00,67.4,46.0,29.15,ESE,112,1.4,3.0,45,0.00,,,0.00,Rainwise IP-100,2013-09-08 15:47:00,
2013-09-08 08:52:00,67.5,45.0,29.15,ESE,112,0.0,2.0,44,0.00,,,0.00,Rainwise IP-100,2013-09-08 15:52:00,
2013-09-08 08:57:00,67.8,44.0,29.15,ESE,112,0.0,3.0,43,0.00,,,0.00,Rainwise IP-100,2013-09-08 15:57:00,
2013-09-08 09:02:00,69.1,46.0,29.15,SSE,157,1.6,2.0,43,0.00,,,0.00,Rainwise IP-100,2013-09-08 16:02:00,
2013-09-08 09:07:00,70.7,46.0,29.15,ESE,112,1.2,1.2,41,0.00,,,0.00,Rainwise IP-100,2013-09-08 16:07:00,
2013-09-08 09:12:00,71.2,45.0,29.15,ESE,112,1.6,3.0,39,0.00,,,0.00,Rainwise IP-100,2013-09-08 16:12:00,
2013-09-08 09:17:00,71.9,45.0,29.15,ESE,112,3.3,3.3,38,0.00,,,0.00,Rainwise IP-100,2013-09-08 16:17:00,
2013-09-08 09:22:00,72.3,45.0,29.15,ENE,67,1.4,3.0,37,0.00,,,0.00,Rainwise IP-100,2013-09-08 16:22:00,
2013-09-08 09:27:00,72.6,45.0,29.15,ESE,112,1.9,2.0,37,0.00,,,0.00,Rainwise IP-100,2013-09-08 16:27:00,
2013-09-08 09:32:00,74.1,46.0,29.15,SSW,202,2.3,2.3,36,0.00,,,0.00,Rainwise IP-100,2013-09-08 16:32:00,
2013-09-08 09:37:00,75.6,46.0,29.15,SSE,157,2.6,2.6,35,0.00,,,0.00,Rainwise IP-100,2013-09-08 16:37:00,
2013-09-08 09:42:00,76.6,46.0,29.15,SSE,157,0.0,3.0,34,0.00,,,0.00,Rainwise IP-100,2013-09-08 16:42:00,
2013-09-08 09:47:00,77.4,46.0,29.14,ESE,112,2.8,2.8,33,0.00,,,0.00,Rainwise IP-100,2013-09-08 16:47:00,
2013-09-08 09:52:00,77.3,45.0,29.14,ESE,112,0.0,4.0,32,0.00,,,0.00,Rainwise IP-100,2013-09-08 16:52:00,
2013-09-08 09:57:00,77.1,45.0,29.14,East,90,4.0,4.0,32,0.00,,,0.00,Rainwise IP-100,2013-09-08 16:57:00,
2013-09-08 10:02:00,77.9,46.0,29.14,SSE,157,0.0,4.0,32,0.00,,,0.00,Rainwise IP-100,2013-09-08 17:02:00,
2013-09-08 10:07:00,78.8,46.0,29.14,East,90,1.6,4.0,31,0.00,,,0.00,Rainwise IP-100,2013-09-08 17:07:00,
2013-09-08 10:12:00,80.0,46.0,29.14,ESE,112,2.3,4.0,30,0.00,,,0.00,Rainwise IP-100,2013-09-08 17:12:00,
2013-09-08 10:17:00,80.9,46.0,29.14,ESE,112,0.0,2.0,29,0.00,,,0.00,Rainwise IP-100,2013-09-08 17:17:00,
2013-09-08 10:22:00,81.9,46.0,29.14,East,90,1.9,3.0,28,0.00,,,0.00,Rainwise IP-100,2013-09-08 17:22:00,
2013-09-08 10:27:00,82.8,46.0,29.14,SSE,157,0.0,3.0,27,0.00,,,0.00,Rainwise IP-100,2013-09-08 17:27:00,
2013-09-08 10:32:00,83.8,45.0,29.13,SSE,157,2.6,4.0,26,0.00,,,0.00,Rainwise IP-100,2013-09-08 17:32:00,
2013-09-08 10:37:00,84.9,46.0,29.13,SSE,157,0.0,3.0,26,0.00,,,0.00,Rainwise IP-100,2013-09-08 17:37:00,
2013-09-08 10:42:00,85.8,46.0,29.13,SSE,157,3.0,4.0,25,0.00,,,0.00,Rainwise IP-100,2013-09-08 17:42:00,
2013-09-08 10:47:00,86.4,45.0,29.13,SE,135,2.8,5.0,24,0.00,,,0.00,Rainwise IP-100,2013-09-08 17:47:00,
2013-09-08 10:52:00,86.7,46.0,29.13,SSE,157,0.0,4.0,24,0.00,,,0.00,Rainwise IP-100,2013-09-08 17:52:00,
2013-09-08 10:57:00,87.2,46.0,29.13,ESE,112,2.3,4.0,24,0.00,,,0.00,Rainwise IP-100,2013-09-08 17:57:00,
2013-09-08 11:02:00,87.9,46.0,29.13,SSW,202,1.9,5.0,23,0.00,,,0.00,Rainwise IP-100,2013-09-08 18:02:00,
2013-09-08 11:07:00,88.9,47.0,29.13,SSW,202,5.1,5.1,23,0.00,,,0.00,Rainwise IP-100,2013-09-08 18:07:00,
2013-09-08 11:12:00,89.8,47.0,29.13,ESE,112,2.6,5.0,23,0.00,,,0.00,Rainwise IP-100,2013-09-08 18:12:00,
2013-09-08 11:17:00,90.4,47.0,29.13,SSE,157,2.6,5.0,22,0.00,,,0.00,Rainwise IP-100,2013-09-08 18:17:00,
2013-09-08 11:22:00,90.9,47.0,29.13,SSE,157,3.0,6.0,22,0.00,,,0.00,Rainwise IP-100,2013-09-08 18:22:00,
2013-09-08 11:27:00,91.0,47.0,29.13,East,90,3.7,7.0,22,0.00,,,0.00,Rainwise IP-100,2013-09-08 18:27:00,
2013-09-08 11:32:00,91.3,47.0,29.12,SSE,157,2.3,7.0,22,0.00,,,0.00,Rainwise IP-100,2013-09-08 18:32:00,
2013-09-08 11:37:00,92.4,47.0,29.12,SE,135,5.8,6.0,21,0.00,,,0.00,Rainwise IP-100,2013-09-08 18:37:00,
2013-09-08 11:42:00,93.1,47.0,29.11,ENE,67,3.0,6.0,21,0.00,,,0.00,Rainwise IP-100,2013-09-08 18:42:00,
2013-09-08 11:47:00,93.2,46.0,29.12,ENE,67,3.0,7.0,20,0.00,,,0.00,Rainwise IP-100,2013-09-08 18:47:00,
2013-09-08 11:52:00,92.9,46.0,29.11,South,180,4.0,7.0,20,0.00,,,0.00,Rainwise IP-100,2013-09-08 18:52:00,
2013-09-08 11:57:00,93.0,46.0,29.11,SSW,202,2.3,7.0,20,0.00,,,0.00,Rainwise IP-100,2013-09-08 18:57:00,
2013-09-08 12:02:00,93.8,47.0,29.11,WSW,247,2.3,6.0,20,0.00,,,0.00,Rainwise IP-100,2013-09-08 19:02:00,
2013-09-08 12:07:00,94.5,46.0,29.11,SW,225,2.8,6.0,19,0.00,,,0.00,Rainwise IP-100,2013-09-08 19:07:00,
2013-09-08 12:12:00,95.0,47.0,29.11,WSW,247,2.6,5.0,19,0.00,,,0.00,Rainwise IP-100,2013-09-08 19:12:00,
2013-09-08 12:17:00,95.5,47.0,29.10,WSW,247,5.6,7.0,19,0.00,,,0.00,Rainwise IP-100,2013-09-08 19:17:00,
2013-09-08 12:22:00,95.9,47.0,29.10,SSE,157,2.8,6.0,19,0.00,,,0.00,Rainwise IP-100,2013-09-08 19:22:00,
2013-09-08 12:27:00,95.9,47.0,29.11,SSE,157,4.2,4.2,19,0.00,,,0.00,Rainwise IP-100,2013-09-08 19:27:00,
2013-09-08 12:32:00,96.0,46.0,29.10,SSE,157,8.6,8.6,18,0.00,,,0.00,Rainwise IP-100,2013-09-08 19:32:00,
2013-09-08 12:37:00,96.4,46.0,29.10,WSW,247,2.1,8.0,18,0.00,,,0.00,Rainwise IP-100,2013-09-08 19:37:00,
2013-09-08 12:42:00,96.6,45.0,29.10,WSW,247,1.9,5.0,17,0.00,,,0.00,Rainwise IP-100,2013-09-08 19:42:00,
2013-09-08 12:47:00,96.6,45.0,29.10,SSW,202,1.9,4.0,17,0.00,,,0.00,Rainwise IP-100,2013-09-08 19:47:00,
2013-09-08 12:52:00,96.7,45.0,29.10,SE,135,3.7,6.0,17,0.00,,,0.00,Rainwise IP-100,2013-09-08 19:52:00,
2013-09-08 12:57:00,97.2,43.0,29.10,East,90,4.4,5.0,16,0.00,,,0.00,Rainwise IP-100,2013-09-08 19:57:00,
2013-09-08 13:02:00,97.3,43.0,29.10,SSE,157,1.2,8.0,16,0.00,,,0.00,Rainwise IP-100,2013-09-08 20:02:00,
2013-09-08 13:07:00,97.0,43.0,29.09,WSW,247,5.4,8.0,16,0.00,,,0.00,Rainwise IP-100,2013-09-08 20:07:00,
2013-09-08 13:12:00,97.4,44.0,29.09,SSE,157,0.0,5.0,16,0.00,,,0.00,Rainwise IP-100,2013-09-08 20:12:00,
2013-09-08 13:17:00,97.7,42.0,29.09,SSE,157,4.7,9.0,15,0.00,,,0.00,Rainwise IP-100,2013-09-08 20:17:00,
2013-09-08 13:22:00,97.5,42.0,29.09,East,90,2.6,6.0,15,0.00,,,0.00,Rainwise IP-100,2013-09-08 20:22:00,
2013-09-08 13:27:00,97.8,42.0,29.09,SW,225,4.2,8.0,15,0.00,,,0.00,Rainwise IP-100,2013-09-08 20:27:00,
2013-09-08 13:32:00,98.3,42.0,29.09,SSE,157,8.4,9.0,15,0.00,,,0.00,Rainwise IP-100,2013-09-08 20:32:00,
2013-09-08 13:37:00,98.4,43.0,29.08,SW,225,4.4,10.0,15,0.00,,,0.00,Rainwise IP-100,2013-09-08 20:37:00,
2013-09-08 13:42:00,98.0,40.0,29.08,SSW,202,1.6,5.0,14,0.00,,,0.00,Rainwise IP-100,2013-09-08 20:42:00,
2013-09-08 13:47:00,97.8,40.0,29.09,SSE,157,5.1,7.0,14,0.00,,,0.00,Rainwise IP-100,2013-09-08 20:47:00,
2013-09-08 13:52:00,98.0,40.0,29.09,NNW,337,3.3,6.0,14,0.00,,,0.00,Rainwise IP-100,2013-09-08 20:52:00,
2013-09-08 13:57:00,98.6,41.0,29.08,ENE,67,2.8,6.0,14,0.00,,,0.00,Rainwise IP-100,2013-09-08 20:57:00,
2013-09-08 14:02:00,99.0,39.0,29.08,ESE,112,4.2,10.0,13,0.00,,,0.00,Rainwise IP-100,2013-09-08 21:02:00,
2013-09-08 14:07:00,98.4,39.0,29.08,East,90,5.1,7.0,13,0.00,,,0.00,Rainwise IP-100,2013-09-08 21:07:00,
2013-09-08 14:12:00,97.3,40.0,29.07,ESE,112,3.3,7.0,14,0.00,,,0.00,Rainwise IP-100,2013-09-08 21:12:00,
2013-09-08 14:17:00,97.7,39.0,29.07,WSW,247,0.0,4.0,13,0.00,,,0.00,Rainwise IP-100,2013-09-08 21:17:00,
2013-09-08 14:22:00,99.1,39.0,29.07,WSW,247,3.7,4.0,13,0.00,,,0.00,Rainwise IP-100,2013-09-08 21:22:00,
2013-09-08 14:27:00,99.2,40.0,29.07,WSW,247,5.1,5.1,13,0.00,,,0.00,Rainwise IP-100,2013-09-08 21:27:00,
2013-09-08 14:32:00,99.3,40.0,29.06,ESE,112,0.0,7.0,13,0.00,,,0.00,Rainwise IP-100,2013-09-08 21:32:00,
2013-09-08 14:37:00,99.8,40.0,29.06,SSW,202,6.1,6.1,13,0.00,,,0.00,Rainwise IP-100,2013-09-08 21:37:00,
2013-09-08 14:42:00,100.3,38.0,29.06,SSW,202,3.3,7.0,12,0.00,,,0.00,Rainwise IP-100,2013-09-08 21:42:00,
2013-09-08 14:47:00,100.4,38.0,29.06,ENE,67,2.6,7.0,12,0.00,,,0.00,Rainwise IP-100,2013-09-08 21:47:00,
2013-09-08 14:52:00,100.3,38.0,29.06,ESE,112,6.3,7.0,12,0.00,,,0.00,Rainwise IP-100,2013-09-08 21:52:00,
2013-09-08 14:57:00,99.8,38.0,29.06,ESE,112,2.1,7.0,12,0.00,,,0.00,Rainwise IP-100,2013-09-08 21:57:00,
2013-09-08 15:02:00,99.7,38.0,29.06,WSW,247,2.1,5.0,12,0.00,,,0.00,Rainwise IP-100,2013-09-08 22:02:00,
2013-09-08 15:07:00,100.6,39.0,29.05,SSE,157,4.2,7.0,12,0.00,,,0.00,Rainwise IP-100,2013-09-08 22:07:00,
2013-09-08 15:12:00,100.8,41.0,29.05,WNW,292,1.6,5.0,13,0.00,,,0.00,Rainwise IP-100,2013-09-08 22:12:00,
2013-09-08 15:17:00,101.0,39.0,29.05,ESE,112,2.3,4.0,12,0.00,,,0.00,Rainwise IP-100,2013-09-08 22:17:00,
2013-09-08 15:22:00,101.1,39.0,29.05,SSE,157,4.4,9.0,12,0.00,,,0.00,Rainwise IP-100,2013-09-08 22:22:00,
2013-09-08 15:27:00,101.3,39.0,29.04,SSW,202,2.8,7.0,12,0.00,,,0.00,Rainwise IP-100,2013-09-08 22:27:00,
2013-09-08 15:32:00,101.9,42.0,29.04,WSW,247,4.2,6.0,13,0.00,,,0.00,Rainwise IP-100,2013-09-08 22:32:00,
2013-09-08 15:37:00,101.7,41.0,29.04,SSW,202,3.7,7.0,13,0.00,,,0.00,Rainwise IP-100,2013-09-08 22:37:00,
2013-09-08 15:42:00,101.1,43.0,29.04,SSE,157,1.6,10.0,14,0.00,,,0.00,Rainwise IP-100,2013-09-08 22:42:00,
2013-09-08 15:47:00,100.8,47.0,29.04,SW,225,6.3,9.0,16,0.00,,,0.00,Rainwise IP-100,2013-09-08 22:47:00,
2013-09-08 15:52:00,101.3,47.0,29.04,SSE,157,4.2,6.0,16,0.00,,,0.00,Rainwise IP-100,2013-09-08 22:52:00,
2013-09-08 15:57:00,101.4,45.0,29.04,SSW,202,3.5,7.0,15,0.00,,,0.00,Rainwise IP-100,2013-09-08 22:57:00,
2013-09-08 16:02:00,101.3,45.0,29.04,WSW,247,3.0,9.0,15,0.00,,,0.00,Rainwise IP-100,2013-09-08 23:02:00,
2013-09-08 16:07:00,101.1,47.0,29.03,SSE,157,2.8,7.0,16,0.00,,,0.00,Rainwise IP-100,2013-09-08 23:07:00,
2013-09-08 16:12:00,100.9,47.0,29.03,SSW,202,5.8,8.0,16,0.00,,,0.00,Rainwise IP-100,2013-09-08 23:12:00,
2013-09-08 16:17:00,100.8,47.0,29.03,SW,225,2.6,8.0,16,0.00,,,0.00,Rainwise IP-100,2013-09-08 23:17:00,
2013-09-08 16:22:00,100.6,46.0,29.02,SSW,202,1.2,8.0,16,0.00,,,0.00,Rainwise IP-100,2013-09-08 23:22:00,
2013-09-08 16:27:00,100.7,47.0,29.03,SSW,202,4.0,9.0,16,0.00,,,0.00,Rainwise IP-100,2013-09-08 23:27:00,
2013-09-08 16:32:00,100.6,46.0,29.03,SSE,157,4.2,8.0,16,0.00,,,0.00,Rainwise IP-100,2013-09-08 23:32:00,
2013-09-08 16:37:00,100.2,47.0,29.03,WSW,247,4.2,7.0,17,0.00,,,0.00,Rainwise IP-100,2013-09-08 23:37:00,
2013-09-08 16:42:00,100.4,47.0,29.03,SSW,202,4.9,9.0,17,0.00,,,0.00,Rainwise IP-100,2013-09-08 23:42:00,
2013-09-08 16:47:00,100.4,47.0,29.03,SSW,202,4.7,8.0,17,0.00,,,0.00,Rainwise IP-100,2013-09-08 23:47:00,
2013-09-08 16:52:00,100.3,47.0,29.02,SSW,202,2.6,7.0,17,0.00,,,0.00,Rainwise IP-100,2013-09-08 23:52:00,
2013-09-08 16:57:00,100.3,47.0,29.03,WSW,247,1.9,7.0,17,0.00,,,0.00,Rainwise IP-100,2013-09-08 23:57:00,
2013-09-08 17:02:00,100.1,47.0,29.03,SSW,202,4.4,8.0,17,0.00,,,0.00,Rainwise IP-100,2013-09-09 00:02:00,
2013-09-08 17:07:00,100.0,47.0,29.03,WSW,247,4.2,7.0,17,0.00,,,0.00,Rainwise IP-100,2013-09-09 00:07:00,
2013-09-08 17:12:00,99.7,47.0,29.03,SSW,202,6.5,8.0,17,0.00,,,0.00,Rainwise IP-100,2013-09-09 00:12:00,
2013-09-08 17:17:00,99.6,47.0,29.02,WSW,247,6.3,8.0,17,0.00,,,0.00,Rainwise IP-100,2013-09-09 00:17:00,
2013-09-08 17:22:00,99.4,47.0,29.02,SSW,202,5.8,10.0,17,0.00,,,0.00,Rainwise IP-100,2013-09-09 00:22:00,
2013-09-08 17:27:00,99.0,47.0,29.02,SSW,202,5.6,9.0,17,0.00,,,0.00,Rainwise IP-100,2013-09-09 00:27:00,
2013-09-08 17:32:00,98.4,46.0,29.03,SSW,202,8.4,11.0,17,0.00,,,0.00,Rainwise IP-100,2013-09-09 00:32:00,
2013-09-08 17:37:00,98.1,46.0,29.02,SW,225,5.8,11.0,17,0.00,,,0.00,Rainwise IP-100,2013-09-09 00:37:00,
2013-09-08 17:42:00,97.5,46.0,29.02,SW,225,9.3,10.0,17,0.00,,,0.00,Rainwise IP-100,2013-09-09 00:42:00,
2013-09-08 17:47:00,96.8,47.0,29.02,WSW,247,4.9,12.0,18,0.00,,,0.00,Rainwise IP-100,2013-09-09 00:47:00,
2013-09-08 17:52:00,96.4,46.0,29.03,WSW,247,4.4,11.0,18,0.00,,,0.00,Rainwise IP-100,2013-09-09 00:52:00,
2013-09-08 17:57:00,96.4,46.0,29.02,SW,225,2.3,8.0,18,0.00,,,0.00,Rainwise IP-100,2013-09-09 00:57:00,
2013-09-08 18:02:00,96.4,46.0,29.02,WSW,247,3.3,9.0,18,0.00,,,0.00,Rainwise IP-100,2013-09-09 01:02:00,
2013-09-08 18:07:00,96.1,46.0,29.02,SSW,202,2.3,8.0,18,0.00,,,0.00,Rainwise IP-100,2013-09-09 01:07:00,
2013-09-08 18:12:00,95.8,46.0,29.02,WSW,247,1.9,7.0,18,0.00,,,0.00,Rainwise IP-100,2013-09-09 01:12:00,
2013-09-08 18:17:00,95.6,47.0,29.02,WSW,247,2.6,7.0,19,0.00,,,0.00,Rainwise IP-100,2013-09-09 01:17:00,
2013-09-08 18:22:00,95.4,47.0,29.02,West,270,1.9,9.0,19,0.00,,,0.00,Rainwise IP-100,2013-09-09 01:22:00,
2013-09-08 18:27:00,95.0,47.0,29.02,West,270,3.3,7.0,19,0.00,,,0.00,Rainwise IP-100,2013-09-09 01:27:00,
2013-09-08 18:32:00,94.3,46.0,29.02,SSW,202,0.0,4.0,19,0.00,,,0.00,Rainwise IP-100,2013-09-09 01:32:00,
2013-09-08 18:37:00,93.2,46.0,29.02,SSW,202,1.4,4.0,20,0.00,,,0.00,Rainwise IP-100,2013-09-09 01:37:00,
2013-09-08 18:42:00,92.1,45.0,29.02,SSW,202,0.0,3.0,20,0.00,,,0.00,Rainwise IP-100,2013-09-09 01:42:00,
2013-09-08 18:47:00,91.0,46.0,29.02,ESE,112,1.4,0.0,21,0.00,,,0.00,Rainwise IP-100,2013-09-09 01:47:00,
2013-09-08 18:52:00,90.3,46.0,29.02,SW,225,0.0,2.0,22,0.00,,,0.00,Rainwise IP-100,2013-09-09 01:52:00,
2013-09-08 18:57:00,89.4,46.0,29.02,WSW,247,4.0,4.0,22,0.00,,,0.00,Rainwise IP-100,2013-09-09 01:57:00,
2013-09-08 19:02:00,88.3,46.0,29.02,North,360,3.3,4.0,23,0.00,,,0.00,Rainwise IP-100,2013-09-09 02:02:00,
2013-09-08 19:07:00,87.4,45.0,29.02,NNW,337,0.0,6.0,23,0.00,,,0.00,Rainwise IP-100,2013-09-09 02:07:00,
2013-09-08 19:12:00,87.1,45.0,29.02,WSW,247,0.0,5.0,23,0.00,,,0.00,Rainwise IP-100,2013-09-09 02:12:00,
2013-09-08 19:17:00,86.9,45.0,29.02,WSW,247,2.8,3.0,23,0.00,,,0.00,Rainwise IP-100,2013-09-09 02:17:00,
2013-09-08 19:22:00,86.7,44.0,29.03,WNW,292,3.5,6.0,23,0.00,,,0.00,Rainwise IP-100,2013-09-09 02:22:00,
2013-09-08 19:27:00,86.5,44.0,29.03,WSW,247,0.0,5.0,23,0.00,,,0.00,Rainwise IP-100,2013-09-09 02:27:00,
2013-09-08 19:32:00,86.0,45.0,29.03,WNW,292,0.0,2.0,24,0.00,,,0.00,Rainwise IP-100,2013-09-09 02:32:00,
2013-09-08 19:37:00,85.3,44.0,29.03,WSW,247,0.0,4.0,24,0.00,,,0.00,Rainwise IP-100,2013-09-09 02:37:00,
2013-09-08 19:42:00,84.6,44.0,29.04,WSW,247,2.8,2.8,24,0.00,,,0.00,Rainwise IP-100,2013-09-09 02:42:00,
2013-09-08 19:47:00,84.4,45.0,29.03,West,270,5.8,6.0,25,0.00,,,0.00,Rainwise IP-100,2013-09-09 02:47:00,
2013-09-08 19:52:00,84.8,44.0,29.03,West,270,0.0,7.0,24,0.00,,,0.00,Rainwise IP-100,2013-09-09 02:52:00,
2013-09-08 19:57:00,85.1,44.0,29.03,SSW,202,0.0,4.0,24,0.00,,,0.00,Rainwise IP-100,2013-09-09 02:57:00,
2013-09-08 20:02:00,84.3,44.0,29.04,SSW,202,0.0,1.0,24,0.00,,,0.00,Rainwise IP-100,2013-09-09 03:02:00,
2013-09-08 20:07:00,83.0,44.0,29.04,WSW,247,0.0,1.0,25,0.00,,,0.00,Rainwise IP-100,2013-09-09 03:07:00,
2013-09-08 20:12:00,81.7,44.0,29.04,NNW,337,0.0,1.0,27,0.00,,,0.00,Rainwise IP-100,2013-09-09 03:12:00,
2013-09-08 20:17:00,80.4,44.0,29.04,WNW,292,0.0,4.0,28,0.00,,,0.00,Rainwise IP-100,2013-09-09 03:17:00,
2013-09-08 20:22:00,79.2,44.0,29.04,West,270,2.8,3.0,29,0.00,,,0.00,Rainwise IP-100,2013-09-09 03:22:00,
2013-09-08 20:27:00,78.0,45.0,29.04,West,270,0.0,3.0,31,0.00,,,0.00,Rainwise IP-100,2013-09-09 03:27:00,
2013-09-08 20:32:00,77.2,44.0,29.04,West,270,0.0,0.0,31,0.00,,,0.00,Rainwise IP-100,2013-09-09 03:32:00,
2013-09-08 20:37:00,76.7,45.0,29.05,WNW,292,2.6,2.6,32,0.00,,,0.00,Rainwise IP-100,2013-09-09 03:37:00,
2013-09-08 20:42:00,76.1,45.0,29.05,WNW,292,2.8,3.0,33,0.00,,,0.00,Rainwise IP-100,2013-09-09 03:42:00,
2013-09-08 20:47:00,75.5,45.0,29.05,WSW,247,1.4,3.0,34,0.00,,,0.00,Rainwise IP-100,2013-09-09 03:47:00,
2013-09-08 20:52:00,74.9,45.0,29.05,WSW,247,0.0,2.0,34,0.00,,,0.00,Rainwise IP-100,2013-09-09 03:52:00,
2013-09-08 20:57:00,74.5,45.0,29.05,WSW,247,2.6,3.0,34,0.00,,,0.00,Rainwise IP-100,2013-09-09 03:57:00,
2013-09-08 21:01:00,73.9,44.0,29.05,WSW,247,2.6,3.0,34,0.00,,,0.00,Rainwise IP-100,2013-09-09 04:01:00,
2013-09-08 21:03:00,73.6,44.0,29.05,WSW,247,0.0,3.0,35,0.00,,,0.00,Rainwise IP-100,2013-09-09 04:03:00,
2013-09-08 21:08:00,73.0,45.0,29.05,WSW,247,0.0,2.0,36,0.00,,,0.00,Rainwise IP-100,2013-09-09 04:08:00,
2013-09-08 21:13:00,72.5,45.0,29.05,WSW,247,0.0,1.0,37,0.00,,,0.00,Rainwise IP-100,2013-09-09 04:13:00,
2013-09-08 21:18:00,72.1,43.0,29.06,WSW,247,0.0,1.0,36,0.00,,,0.00,Rainwise IP-100,2013-09-09 04:18:00,
2013-09-08 21:23:00,71.9,43.0,29.05,WSW,247,1.4,3.0,36,0.00,,,0.00,Rainwise IP-100,2013-09-09 04:23:00,
2013-09-08 21:28:00,71.7,44.0,29.06,WSW,247,0.0,1.0,37,0.00,,,0.00,Rainwise IP-100,2013-09-09 04:28:00,
2013-09-08 21:33:00,71.2,43.0,29.06,WSW,247,2.1,2.1,37,0.00,,,0.00,Rainwise IP-100,2013-09-09 04:33:00,
2013-09-08 21:38:00,70.7,44.0,29.06,WSW,247,0.0,3.0,38,0.00,,,0.00,Rainwise IP-100,2013-09-09 04:38:00,
2013-09-08 21:43:00,70.5,44.0,29.06,WSW,247,0.0,1.0,39,0.00,,,0.00,Rainwise IP-100,2013-09-09 04:43:00,
2013-09-08 21:48:00,70.3,44.0,29.06,WSW,247,0.0,0.0,39,0.00,,,0.00,Rainwise IP-100,2013-09-09 04:48:00,
2013-09-08 21:53:00,69.8,43.0,29.06,WSW,247,1.9,1.9,39,0.00,,,0.00,Rainwise IP-100,2013-09-09 04:53:00,
2013-09-08 21:58:00,69.2,45.0,29.06,WSW,247,0.0,2.0,41,0.00,,,0.00,Rainwise IP-100,2013-09-09 04:58:00,
2013-09-08 22:03:00,68.8,45.0,29.06,WSW,247,1.2,2.0,43,0.00,,,0.00,Rainwise IP-100,2013-09-09 05:03:00,
2013-09-08 22:08:00,68.8,45.0,29.06,WSW,247,0.0,1.0,43,0.00,,,0.00,Rainwise IP-100,2013-09-09 05:08:00,
2013-09-08 22:13:00,68.7,44.0,29.06,WSW,247,1.9,0.0,42,0.00,,,0.00,Rainwise IP-100,2013-09-09 05:13:00,
2013-09-08 22:18:00,68.1,45.0,29.06,WSW,247,1.2,3.0,43,0.00,,,0.00,Rainwise IP-100,2013-09-09 05:18:00,
2013-09-08 22:23:00,67.4,45.0,29.06,WSW,247,0.0,2.0,44,0.00,,,0.00,Rainwise IP-100,2013-09-09 05:23:00,
2013-09-08 22:28:00,67.0,45.0,29.06,WSW,247,1.4,1.4,45,0.00,,,0.00,Rainwise IP-100,2013-09-09 05:28:00,
2013-09-08 22:33:00,66.8,45.0,29.06,WSW,247,0.0,1.0,45,0.00,,,0.00,Rainwise IP-100,2013-09-09 05:33:00,
2013-09-08 22:38:00,66.7,45.0,29.06,WSW,247,0.0,0.0,45,0.00,,,0.00,Rainwise IP-100,2013-09-09 05:38:00,
2013-09-08 22:43:00,66.7,45.0,29.07,WSW,247,3.0,3.0,45,0.00,,,0.00,Rainwise IP-100,2013-09-09 05:43:00,
2013-09-08 22:48:00,66.7,45.0,29.06,WSW,247,0.0,4.0,45,0.00,,,0.00,Rainwise IP-100,2013-09-09 05:48:00,
2013-09-08 22:53:00,66.6,45.0,29.07,WSW,247,0.0,0.0,45,0.00,,,0.00,Rainwise IP-100,2013-09-09 05:53:00,
2013-09-08 22:58:00,66.1,44.0,29.07,WSW,247,0.0,0.0,45,0.00,,,0.00,Rainwise IP-100,2013-09-09 05:58:00,
2013-09-08 23:03:00,65.6,43.0,29.07,WSW,247,0.0,0.0,45,0.00,,,0.00,Rainwise IP-100,2013-09-09 06:03:00,
2013-09-08 23:08:00,65.1,44.0,29.06,WSW,247,0.0,1.0,46,0.00,,,0.00,Rainwise IP-100,2013-09-09 06:08:00,
2013-09-08 23:13:00,64.7,44.0,29.07,WSW,247,0.0,1.0,48,0.00,,,0.00,Rainwise IP-100,2013-09-09 06:13:00,
2013-09-08 23:18:00,64.6,45.0,29.07,WSW,247,0.0,2.0,49,0.00,,,0.00,Rainwise IP-100,2013-09-09 06:18:00,
2013-09-08 23:23:00,64.7,44.0,29.07,WSW,247,0.0,2.0,47,0.00,,,0.00,Rainwise IP-100,2013-09-09 06:23:00,
2013-09-08 23:28:00,64.7,44.0,29.07,WSW,247,0.0,0.0,47,0.00,,,0.00,Rainwise IP-100,2013-09-09 06:28:00,
2013-09-08 23:33:00,64.6,44.0,29.07,WSW,247,0.0,1.0,48,0.00,,,0.00,Rainwise IP-100,2013-09-09 06:33:00,
2013-09-08 23:38:00,64.5,45.0,29.07,WSW,247,0.0,0.0,49,0.00,,,0.00,Rainwise IP-100,2013-09-09 06:38:00,
2013-09-08 23:43:00,64.5,45.0,29.06,WSW,247,0.0,0.0,49,0.00,,,0.00,Rainwise IP-100,2013-09-09 06:43:00,
2013-09-08 23:48:00,64.2,46.0,29.07,WSW,247,1.9,1.9,51,0.00,,,0.00,Rainwise IP-100,2013-09-09 06:48:00,
2013-09-08 23:53:00,63.8,46.0,29.07,WSW,247,0.0,2.0,52,0.00,,,0.00,Rainwise IP-100,2013-09-09 06:53:00,
2013-09-08 23:58:00,63.6,45.0,29.07,WSW,247,1.9,1.9,51,0.00,,,0.00,Rainwise IP-100,2013-09-09 06:58:00,